Time;durP1;ratioP1;P1;durP2;ratioP2;P2;SDS_P1;SDS_P2;PMS_P1;PMS_P2;Temp;Humidity;BMP_temperature;BMP_pressure;BME280_temperature;BME280_humidity;BME280_pressure;Samples;Min_cycle;Max_cycle;Signal;HPM_P1;HPM_P2
2023/05/18 00:00:57;;;;;;;6.17;2.00;;;8.60;99.90;;;;;;4970096;28;20741;-74
2023/05/18 00:03:46;;;;;;;6.63;2.03;;;8.70;99.90;;;;;;4971327;28;20256;-73
2023/05/18 00:06:33;;;;;;;14.80;2.37;;;8.50;99.90;;;;;;4970077;28;20228;-73
2023/05/18 00:09:20;;;;;;;6.07;1.90;;;8.60;99.90;;;;;;4970636;28;20746;-74
2023/05/18 00:12:08;;;;;;;7.90;2.13;;;8.50;99.90;;;;;;4961974;28;20209;-72
2023/05/18 00:14:56;;;;;;;4.57;1.93;;;8.50;99.90;;;;;;4970866;28;20212;-72
2023/05/18 00:17:44;;;;;;;6.63;1.80;;;8.60;99.90;;;;;;4956003;28;20223;-73
2023/05/18 00:20:33;;;;;;;9.20;2.20;;;8.60;99.90;;;;;;4956505;28;20237;-73
2023/05/18 00:23:22;;;;;;;8.93;2.10;;;8.70;99.90;;;;;;4970309;28;20200;-73
2023/05/18 00:26:09;;;;;;;5.33;1.73;;;8.50;99.90;;;;;;4970901;28;20292;-74
2023/05/18 00:28:56;;;;;;;6.60;1.90;;;8.50;99.90;;;;;;4973543;28;20201;-75
2023/05/18 00:31:44;;;;;;;5.93;2.07;;;8.50;99.90;;;;;;4977238;28;20684;-81
2023/05/18 00:34:32;;;;;;;7.20;1.90;;;8.60;99.90;;;;;;4979275;28;20569;-76
2023/05/18 00:37:19;;;;;;;6.83;1.77;;;8.50;99.90;;;;;;4990412;28;20200;-76
2023/05/18 00:40:07;;;;;;;5.17;2.07;;;8.50;99.90;;;;;;4990472;28;20232;-76
2023/05/18 00:42:55;;;;;;;8.60;1.83;;;8.50;99.90;;;;;;4995361;28;20208;-75
2023/05/18 00:45:42;;;;;;;6.03;1.93;;;8.50;99.90;;;;;;4988424;28;20555;-76
2023/05/18 00:48:29;;;;;;;6.87;1.97;;;8.50;99.90;;;;;;4989839;28;20273;-75
2023/05/18 00:51:19;;;;;;;7.00;1.50;;;8.30;99.90;;;;;;4989789;28;20200;-74
2023/05/18 00:54:08;;;;;;;7.43;2.00;;;8.30;99.90;;;;;;4989107;28;20574;-75
2023/05/18 00:57:00;;;;;;;7.70;2.00;;;8.30;99.90;;;;;;4975321;28;20200;-75
2023/05/18 00:59:56;;;;;;;6.20;1.70;;;8.30;99.90;;;;;;4989250;28;20233;-76
2023/05/18 01:02:44;;;;;;;6.20;1.90;;;8.30;99.90;;;;;;4989926;28;20685;-74
2023/05/18 01:05:31;;;;;;;5.37;1.50;;;8.20;99.90;;;;;;4992170;28;20617;-75
2023/05/18 01:08:19;;;;;;;6.00;2.00;;;8.20;99.90;;;;;;4992349;28;20209;-75
2023/05/18 01:11:40;;;;;;;6.60;1.80;;;8.20;99.90;;;;;;4993364;28;20647;-76
2023/05/18 01:15:00;;;;;;;5.97;1.67;;;8.20;99.90;;;;;;4991470;28;20564;-75
2023/05/18 01:18:22;;;;;;;3.60;1.57;;;8.20;99.90;;;;;;4991383;28;20207;-77
2023/05/18 01:21:41;;;;;;;5.13;1.70;;;8.20;99.90;;;;;;4978096;28;20312;-75
2023/05/18 01:24:44;;;;;;;5.40;1.37;;;8.10;99.90;;;;;;4912011;29;20217;-74
2023/05/18 01:27:36;;;;;;;5.00;1.67;;;8.20;99.90;;;;;;4914366;29;20205;-74
2023/05/18 01:30:23;;;;;;;6.33;1.60;;;8.20;99.90;;;;;;4913281;29;20211;-74
2023/05/18 01:33:12;;;;;;;8.33;2.40;;;8.20;99.90;;;;;;4913527;29;20211;-75
2023/05/18 01:35:59;;;;;;;8.63;1.90;;;8.20;99.90;;;;;;4913421;29;20231;-75
2023/05/18 01:38:47;;;;;;;7.93;1.97;;;8.20;99.90;;;;;;4900512;29;20202;-75
2023/05/18 01:41:38;;;;;;;7.90;2.27;;;8.30;99.90;;;;;;4913311;29;20202;-75
2023/05/18 01:44:35;;;;;;;5.93;1.93;;;8.30;99.90;;;;;;4912782;29;20241;-75
2023/05/18 01:47:24;;;;;;;8.00;1.93;;;8.30;99.90;;;;;;4913015;29;20300;-75
2023/05/18 01:50:21;;;;;;;7.37;1.83;;;8.30;99.90;;;;;;4914529;29;20305;-75
2023/05/18 01:53:13;;;;;;;5.13;1.60;;;8.40;99.90;;;;;;4913435;29;20958;-74
2023/05/18 01:56:04;;;;;;;4.37;1.60;;;8.40;99.90;;;;;;4912952;29;20246;-73
2023/05/18 01:58:52;;;;;;;6.13;1.80;;;8.50;99.90;;;;;;4901613;29;20199;-74
2023/05/18 02:01:43;;;;;;;8.07;1.73;;;8.50;99.90;;;;;;5067283;28;20560;-75
2023/05/18 02:04:31;;;;;;;6.53;1.70;;;8.50;99.90;;;;;;5067364;28;20194;-74
2023/05/18 02:07:18;;;;;;;7.10;1.77;;;8.40;99.90;;;;;;5067210;28;20198;-74
2023/05/18 02:10:07;;;;;;;9.23;1.67;;;8.30;99.90;;;;;;5065168;28;20197;-76
2023/05/18 02:12:54;;;;;;;5.67;1.53;;;8.40;99.90;;;;;;5067347;28;20209;-77
2023/05/18 02:15:43;;;;;;;7.40;1.80;;;8.30;99.90;;;;;;5068079;28;20717;-75
2023/05/18 02:18:32;;;;;;;7.13;1.60;;;8.30;99.90;;;;;;5067594;28;20667;-75
2023/05/18 02:21:21;;;;;;;7.93;1.90;;;8.30;99.90;;;;;;5067078;28;20308;-76
2023/05/18 02:24:08;;;;;;;3.53;1.40;;;8.30;99.90;;;;;;5067121;28;20276;-75
2023/05/18 02:26:56;;;;;;;7.10;1.60;;;8.30;99.90;;;;;;5067459;28;20324;-76
2023/05/18 02:29:43;;;;;;;10.03;1.63;;;8.20;99.90;;;;;;5067429;28;20227;-76
2023/05/18 02:32:37;;;;;;;6.97;1.60;;;8.10;99.90;;;;;;5067092;28;20301;-77
2023/05/18 02:35:25;;;;;;;6.23;1.80;;;8.10;99.90;;;;;;5066246;28;20308;-76
2023/05/18 02:38:12;;;;;;;8.53;1.73;;;8.20;99.90;;;;;;5066934;28;20336;-76
2023/05/18 02:40:59;;;;;;;8.00;1.83;;;8.10;99.90;;;;;;5067444;28;20222;-76
2023/05/18 02:43:46;;;;;;;7.80;2.13;;;8.20;99.90;;;;;;5066776;28;20204;-75
2023/05/18 02:46:33;;;;;;;9.17;2.07;;;8.10;99.90;;;;;;5066631;28;20232;-76
2023/05/18 02:49:21;;;;;;;6.67;1.80;;;8.00;99.90;;;;;;5067015;28;20343;-75
2023/05/18 02:52:08;;;;;;;6.40;1.60;;;8.00;99.90;;;;;;5066837;28;20202;-76
2023/05/18 02:54:55;;;;;;;8.30;2.00;;;8.00;99.90;;;;;;5067884;28;20218;-75
2023/05/18 02:57:45;;;;;;;10.17;2.00;;;8.10;99.90;;;;;;5066973;28;20252;-75
2023/05/18 03:00:33;;;;;;;9.37;2.27;;;8.10;99.90;;;;;;5065289;28;20241;-75
2023/05/18 03:03:24;;;;;;;8.17;2.07;;;8.00;99.90;;;;;;5065312;28;20212;-75
2023/05/18 03:06:12;;;;;;;5.50;2.10;;;8.00;99.90;;;;;;5065799;28;20210;-75
2023/05/18 03:09:00;;;;;;;8.90;1.97;;;8.00;99.90;;;;;;5065174;28;20206;-76
2023/05/18 03:11:47;;;;;;;11.27;2.10;;;8.10;99.90;;;;;;5059343;28;20291;-75
2023/05/18 03:14:35;;;;;;;6.80;2.10;;;7.90;99.90;;;;;;5053828;28;20199;-77
2023/05/18 03:17:22;;;;;;;8.30;2.27;;;7.90;99.90;;;;;;5053081;28;20844;-76
2023/05/18 03:20:16;;;;;;;5.33;1.80;;;7.80;99.90;;;;;;5051350;28;20676;-76
2023/05/18 03:23:04;;;;;;;10.13;2.00;;;7.80;99.90;;;;;;5052831;28;20201;-75
2023/05/18 03:25:53;;;;;;;13.43;2.17;;;7.90;99.90;;;;;;5052354;28;20729;-76
2023/05/18 03:28:40;;;;;;;11.27;2.87;;;7.90;99.90;;;;;;5052064;28;20567;-76
2023/05/18 03:31:28;;;;;;;11.13;2.40;;;8.00;99.90;;;;;;5052731;28;20199;-76
2023/05/18 03:34:16;;;;;;;11.27;2.13;;;8.00;99.90;;;;;;5052553;28;20225;-75
2023/05/18 03:37:04;;;;;;;8.67;2.30;;;8.00;99.90;;;;;;5051227;28;20206;-76
2023/05/18 03:39:51;;;;;;;7.97;1.80;;;7.90;99.90;;;;;;5051110;28;20674;-74
2023/05/18 03:42:39;;;;;;;10.53;1.97;;;7.90;99.90;;;;;;5051285;28;20199;-76
2023/05/18 03:45:27;;;;;;;7.70;2.03;;;8.00;99.90;;;;;;5051122;28;20222;-75
2023/05/18 03:48:15;;;;;;;6.80;1.90;;;8.00;99.90;;;;;;5051366;28;20210;-75
2023/05/18 03:51:03;;;;;;;7.87;1.87;;;7.90;99.90;;;;;;5052584;28;20206;-76
2023/05/18 03:53:51;;;;;;;7.43;1.80;;;8.00;99.90;;;;;;5052675;28;20295;-75
2023/05/18 03:56:38;;;;;;;12.07;2.40;;;8.00;99.90;;;;;;5050698;28;20187;-75
2023/05/18 03:59:25;;;;;;;6.63;1.80;;;8.00;99.90;;;;;;5051795;28;20206;-75
2023/05/18 04:02:15;;;;;;;9.57;1.83;;;8.00;99.90;;;;;;5052173;28;20206;-74
2023/05/18 04:05:04;;;;;;;12.07;2.70;;;8.10;99.90;;;;;;5051818;28;20203;-75
2023/05/18 04:07:51;;;;;;;5.60;1.83;;;8.10;99.90;;;;;;5050270;28;20205;-74
2023/05/18 04:10:41;;;;;;;8.20;2.30;;;8.10;99.90;;;;;;5051976;28;20584;-76
2023/05/18 04:13:29;;;;;;;8.97;2.20;;;8.20;99.90;;;;;;5051789;28;20209;-74
2023/05/18 04:16:17;;;;;;;5.37;1.87;;;8.20;99.90;;;;;;5050854;28;20206;-77
2023/05/18 04:19:05;;;;;;;10.70;2.37;;;8.40;99.90;;;;;;5052377;28;20210;-76
2023/05/18 04:21:55;;;;;;;7.10;2.30;;;8.30;99.90;;;;;;5050932;28;20226;-75
2023/05/18 04:24:44;;;;;;;7.70;2.03;;;8.30;99.90;;;;;;5051502;28;20827;-76
2023/05/18 04:27:32;;;;;;;8.73;2.10;;;8.40;99.90;;;;;;5053227;28;20194;-76
2023/05/18 04:30:22;;;;;;;6.77;1.97;;;8.60;99.90;;;;;;5051614;28;20256;-76
2023/05/18 04:33:09;;;;;;;7.40;1.90;;;8.40;99.90;;;;;;5050715;28;20203;-73
2023/05/18 04:36:03;;;;;;;9.63;2.10;;;8.50;99.90;;;;;;5051441;28;20202;-74
2023/05/18 04:38:51;;;;;;;6.50;1.93;;;8.40;99.90;;;;;;5050301;28;20230;-74
2023/05/18 04:41:40;;;;;;;11.20;2.57;;;8.50;99.90;;;;;;5050169;28;20365;-75
2023/05/18 04:44:29;;;;;;;5.87;1.70;;;8.60;99.90;;;;;;5051249;28;20285;-75
2023/05/18 04:47:16;;;;;;;6.77;2.17;;;8.70;99.90;;;;;;5050745;28;20195;-78
2023/05/18 04:50:04;;;;;;;6.20;1.90;;;8.60;99.90;;;;;;5051792;28;20194;-80
2023/05/18 04:52:56;;;;;;;4.43;1.80;;;8.60;99.90;;;;;;5050208;28;20199;-75
2023/05/18 04:55:45;;;;;;;4.47;1.97;;;8.60;99.90;;;;;;5051078;28;20223;-79
2023/05/18 04:58:34;;;;;;;8.53;2.10;;;8.70;99.90;;;;;;5049863;28;20682;-78
2023/05/18 05:01:21;;;;;;;6.30;1.90;;;8.80;99.90;;;;;;5051388;28;20233;-75
2023/05/18 05:04:09;;;;;;;7.00;1.87;;;8.80;99.90;;;;;;5052081;28;20698;-78
2023/05/18 05:06:56;;;;;;;7.60;2.13;;;8.80;99.90;;;;;;5051462;28;20329;-79
2023/05/18 05:09:44;;;;;;;9.33;2.60;;;8.80;99.90;;;;;;5048955;28;20199;-77
2023/05/18 05:12:31;;;;;;;6.17;1.90;;;8.90;99.90;;;;;;5050480;28;20226;-78
2023/05/18 05:15:19;;;;;;;4.93;1.90;;;8.90;99.90;;;;;;5049883;28;20292;-77
2023/05/18 05:18:07;;;;;;;4.63;1.53;;;9.10;99.90;;;;;;5051841;28;20261;-81
2023/05/18 05:20:55;;;;;;;5.20;2.00;;;9.10;99.90;;;;;;5050525;28;20689;-76
2023/05/18 05:23:44;;;;;;;8.83;2.00;;;9.10;99.90;;;;;;5049530;28;20195;-78
2023/05/18 05:26:31;;;;;;;4.90;1.77;;;9.10;99.90;;;;;;5050957;28;20202;-79
2023/05/18 05:29:19;;;;;;;7.63;2.20;;;9.10;99.90;;;;;;5049512;28;20242;-79
2023/05/18 05:32:06;;;;;;;7.53;1.70;;;9.00;99.90;;;;;;5050006;28;20280;-78
2023/05/18 05:34:54;;;;;;;5.50;1.83;;;9.20;99.90;;;;;;5050517;28;20213;-79
2023/05/18 05:37:43;;;;;;;9.50;1.97;;;9.20;99.90;;;;;;5052409;28;20280;-81
2023/05/18 05:40:31;;;;;;;5.40;1.97;;;9.30;99.90;;;;;;5058654;28;20218;-77
2023/05/18 05:43:22;;;;;;;5.67;2.00;;;9.50;99.90;;;;;;5039581;28;20202;-87
2023/05/18 05:46:10;;;;;;;6.40;1.80;;;9.50;99.90;;;;;;5059114;28;20199;-87
2023/05/18 05:48:57;;;;;;;6.07;1.63;;;9.50;99.90;;;;;;5056933;28;20226;-80
2023/05/18 05:51:45;;;;;;;6.53;1.93;;;9.40;99.90;;;;;;5053463;28;20187;-74
2023/05/18 05:54:33;;;;;;;5.90;1.80;;;9.60;99.90;;;;;;5051908;28;20221;-76
2023/05/18 05:57:20;;;;;;;5.73;1.70;;;9.80;99.90;;;;;;5050892;28;20235;-77
2023/05/18 06:00:12;;;;;;;10.47;1.97;;;9.70;99.90;;;;;;5051173;28;20223;-74
2023/05/18 06:02:59;;;;;;;6.23;1.83;;;9.70;99.90;;;;;;5054973;28;20203;-81
2023/05/18 06:05:47;;;;;;;7.07;1.60;;;9.70;99.90;;;;;;5055290;28;20246;-78
2023/05/18 06:08:36;;;;;;;6.43;1.53;;;9.90;99.90;;;;;;5052041;28;20620;-75
2023/05/18 06:11:23;;;;;;;7.47;1.70;;;9.90;99.90;;;;;;5053869;28;21014;-76
2023/05/18 06:14:11;;;;;;;5.73;1.83;;;10.10;99.90;;;;;;5051826;28;20659;-79
2023/05/18 06:17:00;;;;;;;5.03;1.30;;;10.20;99.90;;;;;;5050376;28;20227;-77
2023/05/18 06:19:48;;;;;;;3.53;1.33;;;10.00;99.90;;;;;;5059410;28;20195;-75
2023/05/18 06:22:36;;;;;;;5.90;1.43;;;10.10;99.90;;;;;;5052321;28;20242;-75
2023/05/18 06:25:23;;;;;;;7.47;1.57;;;10.30;99.90;;;;;;5050929;28;20336;-75
2023/05/18 06:28:11;;;;;;;5.77;1.60;;;10.40;99.90;;;;;;5052588;28;20733;-76
2023/05/18 06:31:01;;;;;;;3.97;1.47;;;10.30;99.90;;;;;;5054086;28;20230;-83
2023/05/18 06:33:51;;;;;;;7.30;1.67;;;10.50;99.90;;;;;;5057440;28;20273;-77
2023/05/18 06:36:38;;;;;;;4.90;1.63;;;10.30;99.90;;;;;;5051367;28;20254;-74
2023/05/18 06:39:26;;;;;;;4.73;1.20;;;10.30;99.90;;;;;;5050913;28;20671;-82
2023/05/18 06:42:13;;;;;;;3.60;1.53;;;10.30;99.90;;;;;;5050129;28;20226;-76
2023/05/18 06:45:01;;;;;;;4.00;1.40;;;10.40;99.90;;;;;;5049271;28;20218;-78
2023/05/18 06:47:48;;;;;;;4.50;1.53;;;10.50;99.90;;;;;;5052348;28;20191;-76
2023/05/18 06:50:40;;;;;;;2.83;1.13;;;10.70;99.90;;;;;;5058646;28;20209;-78
2023/05/18 06:53:30;;;;;;;4.27;1.40;;;10.80;99.90;;;;;;5063013;28;20294;-76
2023/05/18 06:56:18;;;;;;;3.10;1.00;;;11.00;99.90;;;;;;5062375;28;20219;-74
2023/05/18 06:59:08;;;;;;;4.27;1.20;;;11.10;99.90;;;;;;5060578;28;20195;-79
2023/05/18 07:01:55;;;;;;;3.27;1.20;;;11.10;99.90;;;;;;5063989;28;20258;-77
2023/05/18 07:04:46;;;;;;;3.63;1.27;;;11.10;99.90;;;;;;5057424;28;20207;-74
2023/05/18 07:07:36;;;;;;;3.33;1.33;;;11.00;99.90;;;;;;5060579;28;20195;-73
2023/05/18 07:10:24;;;;;;;3.73;1.30;;;11.20;99.90;;;;;;5054347;28;20210;-77
2023/05/18 07:13:12;;;;;;;3.43;1.10;;;11.30;99.90;;;;;;5052879;28;20278;-79
2023/05/18 07:15:59;;;;;;;4.17;1.20;;;11.50;99.90;;;;;;5053239;28;20225;-81
2023/05/18 07:18:47;;;;;;;2.97;1.30;;;11.50;99.90;;;;;;5052349;28;20248;-82
2023/05/18 07:21:34;;;;;;;3.23;1.30;;;11.60;99.90;;;;;;5053512;28;20234;-81
2023/05/18 07:24:21;;;;;;;4.10;1.13;;;11.70;99.90;;;;;;5052916;28;20191;-80
2023/05/18 07:27:09;;;;;;;2.43;1.10;;;11.70;99.90;;;;;;5052826;28;20361;-80
2023/05/18 07:29:56;;;;;;;4.00;1.03;;;11.80;99.90;;;;;;5052120;28;20201;-80
2023/05/18 07:32:44;;;;;;;1.87;0.97;;;11.80;99.90;;;;;;5053006;28;20554;-80
2023/05/18 07:35:32;;;;;;;3.37;1.10;;;11.80;99.90;;;;;;5052606;28;20199;-80
2023/05/18 07:38:19;;;;;;;2.77;1.00;;;12.00;99.90;;;;;;5051563;28;20641;-80
2023/05/18 07:41:06;;;;;;;2.93;1.10;;;12.10;99.90;;;;;;5052174;28;20215;-79
2023/05/18 07:43:54;;;;;;;4.83;1.10;;;12.10;99.90;;;;;;5051822;28;20213;-81
2023/05/18 07:46:41;;;;;;;3.80;1.40;;;12.30;99.90;;;;;;5052517;28;20205;-78
2023/05/18 07:49:29;;;;;;;2.23;1.00;;;12.50;99.90;;;;;;5053798;28;20211;-78
2023/05/18 07:52:16;;;;;;;3.47;1.17;;;12.20;99.90;;;;;;5058088;28;20197;-77
2023/05/18 07:55:04;;;;;;;6.23;1.20;;;12.30;99.90;;;;;;5055789;28;20260;-83
2023/05/18 07:57:51;;;;;;;2.90;1.10;;;12.30;99.90;;;;;;5052970;28;20199;-80
2023/05/18 08:00:38;;;;;;;4.83;1.20;;;12.30;99.90;;;;;;5052808;28;20241;-80
2023/05/18 08:03:26;;;;;;;2.20;1.17;;;12.40;99.90;;;;;;5057442;28;20691;-79
2023/05/18 08:06:13;;;;;;;5.40;1.20;;;12.60;99.90;;;;;;5053150;28;20199;-79
2023/05/18 08:09:00;;;;;;;2.40;1.07;;;12.70;99.90;;;;;;5052299;28;20201;-80
2023/05/18 08:11:49;;;;;;;1.93;0.90;;;12.90;99.90;;;;;;5054197;28;20197;-79
2023/05/18 08:14:37;;;;;;;4.40;1.00;;;13.10;99.90;;;;;;5057758;28;20278;-79
2023/05/18 08:17:24;;;;;;;2.93;1.17;;;13.10;99.90;;;;;;5051273;28;20204;-79
2023/05/18 08:20:12;;;;;;;2.83;0.90;;;13.20;99.90;;;;;;5051795;28;20194;-80
2023/05/18 08:22:59;;;;;;;2.17;0.90;;;13.20;99.90;;;;;;5051698;28;20256;-80
2023/05/18 08:25:47;;;;;;;3.73;1.10;;;13.20;99.90;;;;;;5051456;28;20195;-79
2023/05/18 08:28:34;;;;;;;3.60;1.00;;;13.20;99.90;;;;;;5051888;28;20210;-79
2023/05/18 08:31:21;;;;;;;1.80;0.93;;;13.30;99.90;;;;;;5050528;28;20207;-79
2023/05/18 08:34:08;;;;;;;2.30;1.17;;;13.20;99.90;;;;;;5051067;28;20194;-80
2023/05/18 08:36:55;;;;;;;4.10;1.10;;;13.50;99.90;;;;;;5050157;28;20191;-80
2023/05/18 08:39:44;;;;;;;3.50;1.00;;;13.80;99.90;;;;;;5051321;28;20299;-80
2023/05/18 08:42:47;;;;;;;2.87;0.90;;;13.90;99.90;;;;;;5051584;28;20642;-82
2023/05/18 08:45:46;;;;;;;5.73;1.10;;;14.10;99.90;;;;;;5052366;28;20202;-79
2023/05/18 08:48:36;;;;;;;3.30;1.20;;;14.00;99.90;;;;;;5050013;28;20205;-80
2023/05/18 08:51:27;;;;;;;8.37;1.30;;;13.90;99.90;;;;;;5050403;28;20202;-79
2023/05/18 08:54:20;;;;;;;2.60;1.20;;;14.10;99.90;;;;;;5050982;28;20201;-80
2023/05/18 08:57:10;;;;;;;4.00;0.90;;;14.20;99.90;;;;;;5050776;28;20194;-79
2023/05/18 08:59:59;;;;;;;2.30;1.00;;;14.30;99.90;;;;;;5050758;28;20307;-79
2023/05/18 09:02:47;;;;;;;2.87;0.80;;;14.60;99.90;;;;;;5052923;28;20217;-79
2023/05/18 09:05:35;;;;;;;4.10;1.00;;;14.80;99.90;;;;;;5050395;28;20226;-80
2023/05/18 09:08:23;;;;;;;1.53;0.70;;;14.80;99.90;;;;;;5051294;28;20194;-79
2023/05/18 09:11:12;;;;;;;3.80;1.23;;;14.80;99.90;;;;;;5050047;28;20348;-79
2023/05/18 09:13:59;;;;;;;1.83;0.77;;;14.90;99.90;;;;;;5050381;28;20213;-80
2023/05/18 09:16:47;;;;;;;4.00;0.87;;;14.90;99.90;;;;;;5051766;28;20222;-78
2023/05/18 09:19:34;;;;;;;3.00;1.07;;;15.10;99.90;;;;;;5051527;28;20213;-79
2023/05/18 09:22:21;;;;;;;2.17;0.80;;;15.30;99.90;;;;;;5050863;28;20675;-79
2023/05/18 09:25:09;;;;;;;2.53;1.07;;;15.20;99.90;;;;;;5050490;28;20578;-80
2023/05/18 09:27:57;;;;;;;1.90;0.90;;;15.20;99.90;;;;;;5049673;28;20206;-80
2023/05/18 09:30:44;;;;;;;2.97;0.80;;;15.00;99.90;;;;;;5050521;28;20207;-81
2023/05/18 09:33:34;;;;;;;3.13;1.00;;;15.00;99.90;;;;;;5052632;28;20195;-80
2023/05/18 09:36:27;;;;;;;4.33;0.93;;;15.00;99.90;;;;;;5049402;28;20199;-80
2023/05/18 09:39:15;;;;;;;3.33;0.90;;;15.20;99.90;;;;;;5051513;28;20830;-79
2023/05/18 09:42:03;;;;;;;2.83;1.13;;;15.40;99.90;;;;;;5050256;28;20222;-78
2023/05/18 09:44:50;;;;;;;10.10;1.80;;;15.20;99.90;;;;;;5051676;28;20569;-79
2023/05/18 09:47:37;;;;;;;3.67;1.03;;;15.30;99.90;;;;;;5054686;28;20194;-80
2023/05/18 09:50:25;;;;;;;2.47;1.10;;;15.40;99.90;;;;;;5051119;28;20199;-81
2023/05/18 09:53:13;;;;;;;5.00;1.40;;;15.50;99.90;;;;;;5050645;28;20206;-81
2023/05/18 09:56:06;;;;;;;6.00;1.30;;;15.40;99.90;;;;;;5052825;28;20226;-83
2023/05/18 09:58:53;;;;;;;3.00;1.17;;;15.40;99.90;;;;;;5050688;28;20324;-78
2023/05/18 10:02:01;;;;;;;2.93;0.87;;;15.60;99.90;;;;;;5051572;28;20304;-78
2023/05/18 10:04:49;;;;;;;3.23;1.00;;;15.30;99.90;;;;;;5050863;28;20198;-78
2023/05/18 10:07:36;;;;;;;3.43;1.10;;;15.50;99.90;;;;;;5051907;28;20278;-80
2023/05/18 10:10:27;;;;;;;3.43;1.20;;;15.50;99.90;;;;;;5050220;28;20202;-77
2023/05/18 10:13:18;;;;;;;4.37;1.40;;;15.60;99.90;;;;;;5049723;28;20202;-75
2023/05/18 10:16:07;;;;;;;1.73;0.90;;;15.40;99.90;;;;;;5049492;28;20199;-72
2023/05/18 10:18:55;;;;;;;2.90;1.00;;;15.60;99.90;;;;;;5051588;28;20186;-74
2023/05/18 10:21:43;;;;;;;2.07;0.80;;;15.80;99.90;;;;;;5052049;28;20225;-85
2023/05/18 10:24:34;;;;;;;4.97;0.80;;;15.70;99.90;;;;;;5053476;28;20202;-80
2023/05/18 10:27:26;;;;;;;1.67;0.87;;;15.70;99.90;;;;;;5053923;28;20294;-79
2023/05/18 10:30:16;;;;;;;2.60;1.03;;;15.80;99.90;;;;;;5053922;28;20285;-80
2023/05/18 10:33:04;;;;;;;2.33;0.90;;;15.80;99.90;;;;;;5053234;28;20191;-78
2023/05/18 10:36:05;;;;;;;1.43;0.70;;;16.10;99.90;;;;;;5058022;28;20648;-79
2023/05/18 10:38:53;;;;;;;4.30;1.00;;;16.50;99.90;;;;;;5060061;28;20244;-83
2023/05/18 10:41:42;;;;;;;2.83;0.80;;;16.70;99.90;;;;;;5052656;28;20301;-81
2023/05/18 10:44:31;;;;;;;2.53;1.00;;;16.90;99.90;;;;;;5054484;28;20202;-87
2023/05/18 10:47:19;;;;;;;1.80;0.73;;;17.10;99.90;;;;;;5053856;28;20323;-88
2023/05/18 10:50:08;;;;;;;1.47;0.70;;;17.10;99.90;;;;;;5054654;28;20280;-87
2023/05/18 10:52:57;;;;;;;2.97;0.87;;;17.10;99.90;;;;;;5056666;28;20202;-80
2023/05/18 10:55:47;;;;;;;2.27;0.70;;;17.00;99.90;;;;;;5052132;28;20233;-82
2023/05/18 10:58:37;;;;;;;0.60;0.60;;;17.10;99.90;;;;;;5054189;28;20206;-81
2023/05/18 11:01:24;;;;;;;1.33;0.67;;;17.10;99.90;;;;;;5069224;28;20249;-80
2023/05/18 11:04:12;;;;;;;3.27;0.97;;;17.30;99.90;;;;;;5047764;28;20227;-82
2023/05/18 11:07:01;;;;;;;1.17;0.70;;;17.30;99.90;;;;;;5053349;28;20201;-72
2023/05/18 11:09:48;;;;;;;1.77;0.80;;;17.40;99.90;;;;;;5055354;28;20615;-73
2023/05/18 11:12:38;;;;;;;1.40;0.80;;;17.50;99.90;;;;;;5052069;28;20696;-74
2023/05/18 11:15:54;;;;;;;2.17;0.87;;;17.70;99.90;;;;;;5050155;28;20209;-74
2023/05/18 11:18:50;;;;;;;2.00;0.70;;;18.00;99.90;;;;;;5039593;28;20194;-74
2023/05/18 11:21:40;;;;;;;1.33;0.70;;;18.10;99.90;;;;;;5051768;28;20211;-73
2023/05/18 11:24:31;;;;;;;2.60;0.80;;;18.40;99.90;;;;;;5052160;28;20187;-73
2023/05/18 11:27:20;;;;;;;2.37;0.80;;;18.80;99.90;;;;;;5052318;28;20546;-73
2023/05/18 11:30:26;;;;;;;2.03;1.00;;;18.70;99.90;;;;;;5052661;28;20333;-73
2023/05/18 11:33:16;;;;;;;2.73;1.30;;;18.40;99.90;;;;;;5043010;28;20196;-76
2023/05/18 11:36:08;;;;;;;3.13;0.90;;;18.30;99.90;;;;;;5049384;28;20294;-72
2023/05/18 11:39:05;;;;;;;2.27;0.80;;;18.50;99.90;;;;;;5040891;28;20207;-74
2023/05/18 11:42:01;;;;;;;2.30;0.87;;;18.60;99.90;;;;;;5042582;28;20212;-76
2023/05/18 11:44:55;;;;;;;4.00;1.00;;;18.60;99.90;;;;;;5046141;28;20264;-77
2023/05/18 11:47:42;;;;;;;3.53;0.73;;;19.00;99.90;;;;;;5056721;28;20206;-73
2023/05/18 11:50:31;;;;;;;1.70;0.90;;;19.00;99.90;;;;;;5041288;28;20565;-77
2023/05/18 11:53:25;;;;;;;3.67;0.90;;;19.30;99.90;;;;;;5052218;28;20561;-76
2023/05/18 11:56:12;;;;;;;2.60;0.80;;;19.50;99.90;;;;;;5050257;28;20225;-77
2023/05/18 11:59:13;;;;;;;2.90;0.80;;;19.80;99.90;;;;;;5043725;28;20231;-74
2023/05/18 12:02:02;;;;;;;1.47;0.70;;;20.00;99.90;;;;;;5047628;28;20360;-76
2023/05/18 12:04:52;;;;;;;3.07;0.80;;;20.10;99.90;;;;;;5050883;28;20671;-76
2023/05/18 12:07:40;;;;;;;4.20;1.00;;;20.20;99.90;;;;;;5052084;28;20723;-75
2023/05/18 12:10:28;;;;;;;1.97;0.70;;;20.60;98.00;;;;;;5050829;28;20344;-76
2023/05/18 12:13:16;;;;;;;3.53;0.70;;;20.90;96.80;;;;;;5052160;28;21004;-78
2023/05/18 12:16:05;;;;;;;3.77;0.70;;;20.90;96.60;;;;;;5067012;28;20560;-78
2023/05/18 12:18:52;;;;;;;3.73;1.00;;;20.80;97.00;;;;;;5051285;28;20284;-78
2023/05/18 12:21:39;;;;;;;1.37;0.90;;;21.00;97.40;;;;;;5049860;28;20186;-78
2023/05/18 12:24:28;;;;;;;1.00;0.60;;;20.80;94.90;;;;;;5049704;28;20215;-76
2023/05/18 12:27:15;;;;;;;1.27;0.70;;;20.60;95.50;;;;;;5051150;28;20203;-76
2023/05/18 12:30:03;;;;;;;3.50;0.90;;;20.70;95.40;;;;;;5051714;28;20567;-79
2023/05/18 12:32:52;;;;;;;1.60;0.80;;;20.80;94.70;;;;;;5050652;28;20194;-75
2023/05/18 12:35:40;;;;;;;3.37;0.60;;;21.00;97.20;;;;;;5045845;28;20292;-75
2023/05/18 12:38:27;;;;;;;2.83;0.80;;;20.70;93.80;;;;;;5041313;28;20678;-76
2023/05/18 12:41:25;;;;;;;2.53;1.00;;;20.70;94.00;;;;;;5047900;28;20551;-79
2023/05/18 12:44:13;;;;;;;2.58;0.90;;;20.60;95.30;;;;;;5042340;28;20440;-76
2023/05/18 12:47:01;;;;;;;4.50;0.60;;;20.60;96.00;;;;;;5039274;28;20191;-76
2023/05/18 12:49:49;;;;;;;1.70;0.53;;;20.60;94.50;;;;;;5032820;28;20235;-74
2023/05/18 12:52:36;;;;;;;2.23;0.70;;;20.30;93.60;;;;;;5029596;28;20200;-76
2023/05/18 12:55:24;;;;;;;1.73;0.80;;;20.30;96.50;;;;;;5030432;28;20211;-76
2023/05/18 12:58:15;;;;;;;2.20;0.70;;;20.00;95.80;;;;;;5046145;28;20187;-75
2023/05/18 13:01:10;;;;;;;2.83;0.63;;;19.90;94.40;;;;;;5029806;28;20243;-74
2023/05/18 13:03:57;;;;;;;1.97;0.70;;;19.70;94.80;;;;;;5041403;28;20311;-77
2023/05/18 13:06:45;;;;;;;2.10;0.70;;;19.60;95.30;;;;;;5042797;28;20706;-76
2023/05/18 13:09:32;;;;;;;2.27;0.60;;;19.50;95.50;;;;;;5030490;28;20278;-75
2023/05/18 13:12:35;;;;;;;2.07;0.70;;;19.10;96.60;;;;;;5031610;28;20285;-83
2023/05/18 13:15:23;;;;;;;4.33;0.70;;;19.30;98.30;;;;;;5030708;28;20240;-77
2023/05/18 13:18:10;;;;;;;2.77;0.53;;;18.90;97.00;;;;;;5031802;28;20653;-77
2023/05/18 13:20:58;;;;;;;2.70;0.83;;;18.50;97.90;;;;;;5029871;28;20731;-77
2023/05/18 13:23:45;;;;;;;1.37;0.67;;;18.30;98.50;;;;;;5029342;28;20306;-76
2023/05/18 13:26:32;;;;;;;0.97;0.53;;;18.00;99.90;;;;;;5029726;28;20196;-77
2023/05/18 13:29:20;;;;;;;4.40;0.70;;;17.60;99.90;;;;;;5031167;28;20206;-76
2023/05/18 13:32:10;;;;;;;1.60;0.63;;;17.20;99.90;;;;;;5031463;28;20214;-79
2023/05/18 13:34:58;;;;;;;2.03;0.60;;;17.10;99.90;;;;;;5032448;28;20195;-75
2023/05/18 13:37:47;;;;;;;2.10;0.67;;;17.20;99.90;;;;;;5031384;28;20217;-78
2023/05/18 13:40:37;;;;;;;1.50;0.60;;;17.10;99.90;;;;;;5031039;28;20256;-78
2023/05/18 13:43:24;;;;;;;2.57;0.60;;;17.00;99.90;;;;;;5030987;28;20219;-74
2023/05/18 13:46:12;;;;;;;1.27;0.90;;;16.90;99.90;;;;;;5030360;28;20191;-77
2023/05/18 13:48:59;;;;;;;1.30;0.70;;;16.70;99.90;;;;;;5031510;28;20556;-76
2023/05/18 13:51:47;;;;;;;1.90;0.93;;;16.60;99.90;;;;;;5030953;28;20200;-77
2023/05/18 13:54:34;;;;;;;3.57;0.60;;;16.60;99.90;;;;;;5032153;28;20211;-79
2023/05/18 13:57:24;;;;;;;1.43;0.63;;;16.50;99.90;;;;;;5030401;28;20287;-78
2023/05/18 14:00:15;;;;;;;1.03;0.60;;;16.40;99.90;;;;;;5030542;28;20646;-78
2023/05/18 14:03:03;;;;;;;0.90;0.50;;;16.30;99.90;;;;;;5031459;28;20227;-78
2023/05/18 14:05:51;;;;;;;4.87;0.90;;;16.30;99.90;;;;;;5030895;28;20198;-78
2023/05/18 14:08:38;;;;;;;3.07;0.80;;;16.20;99.90;;;;;;5029039;28;20202;-78
2023/05/18 14:11:25;;;;;;;1.97;0.80;;;16.00;99.90;;;;;;5031395;28;20203;-76
2023/05/18 14:14:12;;;;;;;1.87;0.70;;;15.90;99.90;;;;;;5030527;28;20204;-76
2023/05/18 14:17:00;;;;;;;1.43;0.70;;;15.90;99.90;;;;;;5029729;28;20665;-77
2023/05/18 14:19:47;;;;;;;1.23;0.60;;;15.90;99.90;;;;;;5032241;28;20659;-77
2023/05/18 14:22:35;;;;;;;1.80;0.70;;;15.90;99.90;;;;;;5030573;28;20609;-77
2023/05/18 14:25:22;;;;;;;2.10;0.90;;;16.00;99.90;;;;;;5031697;28;20199;-80
2023/05/18 14:28:10;;;;;;;7.67;0.70;;;15.90;99.90;;;;;;5029309;28;20191;-76
2023/05/18 14:30:58;;;;;;;1.07;0.70;;;15.80;99.90;;;;;;5029095;28;20288;-78
2023/05/18 14:33:45;;;;;;;1.20;0.70;;;15.60;99.90;;;;;;5029535;28;20207;-78
2023/05/18 14:36:33;;;;;;;1.67;0.70;;;15.80;99.90;;;;;;5031091;28;20648;-76
2023/05/18 14:39:20;;;;;;;1.53;0.60;;;15.70;99.90;;;;;;5029520;28;20203;-81
2023/05/18 14:42:07;;;;;;;0.80;0.60;;;15.60;99.90;;;;;;5027878;28;20727;-79
2023/05/18 14:44:55;;;;;;;2.17;0.83;;;15.60;99.90;;;;;;5029183;28;20188;-79